Time;durP1;ratioP1;P1;durP2;ratioP2;P2;SDS_P1;SDS_P2;PMS_P1;PMS_P2;Temp;Humidity;BMP_temperature;BMP_pressure;BME280_temperature;BME280_humidity;BME280_pressure;Samples;Min_cycle;Max_cycle;Signal;HPM_P1;HPM_P2
2023/11/27 00:02:06;;;;;;;19.33;13.67;;;3.00;99.90;;;;;;5025210;28;20566;-62
2023/11/27 00:04:34;;;;;;;21.73;14.30;;;3.00;99.90;;;;;;5036058;28;20470;-62
2023/11/27 00:07:02;;;;;;;20.27;14.60;;;3.00;99.90;;;;;;5038160;28;20508;-62
2023/11/27 00:09:30;;;;;;;18.13;14.13;;;3.00;99.90;;;;;;5036952;28;20502;-62
2023/11/27 00:12:02;;;;;;;20.13;13.97;;;3.00;99.90;;;;;;5033326;28;21288;-61
2023/11/27 00:14:30;;;;;;;19.83;13.67;;;3.00;99.90;;;;;;5037152;28;20721;-62
2023/11/27 00:16:58;;;;;;;17.90;13.57;;;3.00;99.90;;;;;;5032691;28;20587;-62
2023/11/27 00:19:26;;;;;;;21.13;14.70;;;3.00;99.90;;;;;;5032928;28;20478;-61
2023/11/27 00:21:54;;;;;;;15.23;13.50;;;3.00;99.90;;;;;;5034305;28;20514;-62
2023/11/27 00:24:22;;;;;;;17.07;13.60;;;3.00;99.90;;;;;;5034100;28;20547;-62
2023/11/27 00:26:50;;;;;;;16.50;13.20;;;3.00;99.90;;;;;;5034037;28;20476;-61
2023/11/27 00:29:19;;;;;;;17.40;13.17;;;3.00;99.90;;;;;;5035378;28;20551;-62
2023/11/27 00:31:47;;;;;;;20.83;13.43;;;3.00;99.90;;;;;;5025870;28;20472;-62
2023/11/27 00:34:16;;;;;;;16.43;12.57;;;3.00;99.90;;;;;;5034320;28;20503;-62
2023/11/27 00:36:44;;;;;;;19.80;13.63;;;3.00;99.90;;;;;;5039070;28;20471;-62
2023/11/27 00:39:12;;;;;;;20.67;14.87;;;3.00;99.90;;;;;;5034929;28;20467;-62
2023/11/27 00:41:40;;;;;;;18.50;13.67;;;3.00;99.90;;;;;;5039007;28;20787;-61
2023/11/27 00:44:08;;;;;;;18.43;13.90;;;3.00;99.90;;;;;;5032729;28;20552;-61
2023/11/27 00:46:39;;;;;;;18.40;13.93;;;3.00;99.90;;;;;;5038153;28;20923;-63
2023/11/27 00:49:07;;;;;;;18.80;13.93;;;3.00;99.90;;;;;;5036056;28;20477;-62
2023/11/27 00:51:35;;;;;;;18.93;14.47;;;3.00;99.90;;;;;;5039349;28;20479;-61
2023/11/27 00:54:03;;;;;;;20.20;14.70;;;3.00;99.90;;;;;;5052663;23;20626;-62
2023/11/27 00:56:30;;;;;;;17.47;12.57;;;3.00;99.90;;;;;;5018266;28;20554;-63
2023/11/27 00:58:58;;;;;;;17.83;12.83;;;3.00;99.90;;;;;;5018774;28;20482;-62
2023/11/27 01:01:26;;;;;;;18.97;13.43;;;3.00;99.90;;;;;;5016711;28;20467;-63
2023/11/27 01:03:55;;;;;;;17.53;13.33;;;3.00;99.90;;;;;;5019659;28;20506;-62
2023/11/27 01:06:23;;;;;;;19.53;14.13;;;3.00;99.90;;;;;;5015151;28;20503;-62
2023/11/27 01:08:51;;;;;;;20.43;13.57;;;3.00;99.90;;;;;;5017074;28;21925;-61
2023/11/27 01:11:19;;;;;;;18.17;13.90;;;3.00;99.90;;;;;;5019091;28;21032;-62
2023/11/27 01:13:47;;;;;;;19.17;13.40;;;3.00;99.90;;;;;;5019984;28;20566;-62
2023/11/27 01:16:15;;;;;;;16.93;12.73;;;3.00;99.90;;;;;;5014162;28;20476;-62
2023/11/27 01:18:44;;;;;;;14.50;12.20;;;3.00;99.90;;;;;;5015053;28;20494;-62
2023/11/27 01:21:13;;;;;;;18.60;11.93;;;3.00;99.90;;;;;;5018724;28;20525;-63
2023/11/27 01:23:43;;;;;;;15.90;12.70;;;3.00;99.90;;;;;;5015890;28;22414;-62
2023/11/27 01:26:11;;;;;;;16.97;11.97;;;3.00;99.90;;;;;;5014567;28;20471;-63
2023/11/27 01:28:39;;;;;;;15.23;11.70;;;3.00;99.90;;;;;;5019650;28;20617;-62
2023/11/27 01:31:08;;;;;;;15.57;11.77;;;3.10;99.90;;;;;;5016998;28;21039;-62
2023/11/27 01:33:36;;;;;;;15.97;11.53;;;3.10;99.90;;;;;;5011362;28;20471;-62
2023/11/27 01:36:04;;;;;;;17.60;12.77;;;3.10;99.90;;;;;;5014463;28;20501;-63
2023/11/27 01:38:34;;;;;;;16.33;11.27;;;3.10;99.90;;;;;;5016689;28;21083;-63
2023/11/27 01:41:02;;;;;;;17.70;12.47;;;3.10;99.90;;;;;;5017912;28;20474;-62
2023/11/27 01:43:30;;;;;;;13.33;11.60;;;3.10;99.90;;;;;;5015832;28;20549;-63
2023/11/27 01:46:19;;;;;;;17.03;11.90;;;3.10;99.90;;;;;;5008136;28;20471;-62
2023/11/27 01:48:48;;;;;;;16.80;11.47;;;3.10;99.90;;;;;;5011827;28;20482;-63
2023/11/27 01:51:17;;;;;;;14.10;11.13;;;3.10;99.90;;;;;;5014360;28;20525;-63
2023/11/27 01:53:48;;;;;;;15.30;11.50;;;3.10;99.90;;;;;;5020669;28;20550;-63
2023/11/27 01:56:17;;;;;;;16.43;12.40;;;3.10;99.90;;;;;;5016377;28;20499;-62
2023/11/27 01:58:47;;;;;;;16.03;11.70;;;3.10;99.90;;;;;;5016928;28;20569;-61
2023/11/27 02:01:15;;;;;;;16.17;11.60;;;3.10;99.90;;;;;;5009793;28;20471;-61
2023/11/27 02:03:44;;;;;;;15.23;11.63;;;3.10;99.90;;;;;;5008520;28;20503;-62
2023/11/27 02:06:12;;;;;;;17.23;11.77;;;3.10;99.90;;;;;;5014267;28;20470;-62
2023/11/27 02:08:41;;;;;;;16.83;11.87;;;3.10;99.90;;;;;;5018086;28;20910;-62
2023/11/27 02:11:10;;;;;;;14.47;10.57;;;3.10;99.90;;;;;;5023535;28;20480;-63
2023/11/27 02:13:38;;;;;;;13.87;10.37;;;3.20;99.90;;;;;;5018735;28;20582;-62
2023/11/27 02:16:07;;;;;;;12.90;9.83;;;3.20;99.90;;;;;;5016720;28;20505;-63
2023/11/27 02:18:34;;;;;;;11.73;9.70;;;3.20;99.90;;;;;;5013955;28;20471;-64
2023/11/27 02:21:03;;;;;;;13.90;9.80;;;3.20;99.90;;;;;;5014773;28;20911;-62
2023/11/27 02:23:33;;;;;;;12.20;10.00;;;3.20;99.90;;;;;;5037581;28;20464;-62
2023/11/27 02:26:01;;;;;;;11.17;8.93;;;3.20;99.90;;;;;;5040767;28;20490;-62
2023/11/27 02:28:29;;;;;;;12.10;8.93;;;3.20;99.90;;;;;;5018412;28;20570;-62
2023/11/27 02:30:57;;;;;;;11.80;9.50;;;3.20;99.90;;;;;;5018857;28;20471;-63
2023/11/27 02:33:26;;;;;;;11.77;8.53;;;3.20;99.90;;;;;;5015875;28;20937;-62
2023/11/27 02:35:54;;;;;;;12.60;9.13;;;3.30;99.90;;;;;;5016335;28;21023;-62
2023/11/27 02:38:22;;;;;;;12.43;9.70;;;3.30;99.90;;;;;;5014453;28;20988;-61
2023/11/27 02:40:51;;;;;;;11.50;9.23;;;3.20;99.90;;;;;;5013120;28;20516;-62
2023/11/27 02:43:19;;;;;;;11.90;8.90;;;3.20;99.90;;;;;;5015584;28;20491;-63
2023/11/27 02:45:47;;;;;;;12.07;8.93;;;3.20;99.90;;;;;;5016066;28;20566;-62
2023/11/27 02:48:16;;;;;;;12.47;9.43;;;3.20;99.90;;;;;;5012019;28;20472;-62
2023/11/27 02:50:43;;;;;;;11.30;8.73;;;3.20;99.90;;;;;;5012578;28;21010;-62
2023/11/27 02:53:12;;;;;;;10.97;8.87;;;3.20;99.90;;;;;;5015536;28;20475;-62
2023/11/27 02:55:40;;;;;;;13.00;9.10;;;3.20;99.90;;;;;;5013727;28;20853;-63
2023/11/27 02:58:09;;;;;;;11.40;8.80;;;3.20;99.90;;;;;;5007265;28;20488;-62
2023/11/27 03:00:37;;;;;;;11.80;8.80;;;3.30;99.90;;;;;;5019116;28;20651;-62
2023/11/27 03:03:05;;;;;;;13.70;9.63;;;3.30;99.90;;;;;;5016071;28;20594;-62
2023/11/27 03:05:33;;;;;;;10.80;8.27;;;3.30;99.90;;;;;;5013277;28;21040;-62
2023/11/27 03:08:02;;;;;;;11.43;9.30;;;3.30;99.90;;;;;;5014733;28;20607;-62
2023/11/27 03:10:30;;;;;;;13.17;9.63;;;3.30;99.90;;;;;;5016045;28;20479;-62
2023/11/27 03:12:58;;;;;;;13.40;9.90;;;3.30;99.90;;;;;;5016142;28;20573;-62
2023/11/27 03:15:28;;;;;;;13.00;9.83;;;3.30;99.90;;;;;;5016528;28;20495;-62
2023/11/27 03:17:56;;;;;;;12.60;9.33;;;3.30;99.90;;;;;;5013699;28;20901;-62
2023/11/27 03:20:24;;;;;;;11.10;9.13;;;3.30;99.90;;;;;;5020922;28;20470;-62
2023/11/27 03:22:52;;;;;;;12.80;9.60;;;3.30;99.90;;;;;;5018061;28;20504;-62
2023/11/27 03:25:20;;;;;;;11.00;8.60;;;3.30;99.90;;;;;;5014012;28;20502;-62
2023/11/27 03:27:48;;;;;;;11.67;8.67;;;3.30;99.90;;;;;;5013956;28;20522;-62
2023/11/27 03:30:16;;;;;;;14.90;10.40;;;3.30;99.90;;;;;;5013596;28;20471;-62
2023/11/27 03:32:45;;;;;;;12.10;8.93;;;3.30;99.90;;;;;;5013505;28;20542;-63
2023/11/27 03:35:13;;;;;;;11.10;8.87;;;3.30;99.90;;;;;;5018114;28;20503;-63
2023/11/27 03:37:41;;;;;;;13.07;9.40;;;3.40;99.90;;;;;;5013680;28;20960;-61
2023/11/27 03:40:09;;;;;;;12.03;8.53;;;3.40;99.90;;;;;;5010680;28;20475;-62
2023/11/27 03:42:38;;;;;;;13.07;9.87;;;3.30;99.90;;;;;;5022757;28;20468;-63
2023/11/27 03:45:06;;;;;;;13.70;9.13;;;3.30;99.90;;;;;;5013793;28;21123;-62
2023/11/27 03:47:34;;;;;;;12.73;10.60;;;3.40;99.90;;;;;;5013464;28;20876;-62
2023/11/27 03:50:05;;;;;;;13.77;9.90;;;3.40;99.90;;;;;;5018047;28;20479;-63
2023/11/27 03:52:33;;;;;;;13.30;10.20;;;3.30;99.90;;;;;;5021566;28;20941;-62
2023/11/27 03:55:01;;;;;;;13.10;10.27;;;3.30;99.90;;;;;;5014583;28;20932;-61
2023/11/27 03:57:29;;;;;;;11.73;8.90;;;3.30;99.90;;;;;;5012911;28;20502;-66
2023/11/27 03:59:57;;;;;;;13.97;10.10;;;3.30;99.90;;;;;;5015727;28;21188;-62
2023/11/27 04:02:25;;;;;;;12.17;9.83;;;3.30;99.90;;;;;;5011086;28;20467;-62
2023/11/27 04:04:53;;;;;;;10.43;8.23;;;3.30;99.90;;;;;;5014927;28;20495;-63
2023/11/27 04:07:22;;;;;;;12.63;9.20;;;3.20;99.90;;;;;;5018870;28;20796;-62
2023/11/27 04:09:50;;;;;;;12.60;9.30;;;3.20;99.90;;;;;;5015496;28;20887;-62
2023/11/27 04:12:19;;;;;;;12.50;9.17;;;3.20;99.90;;;;;;5016376;28;20475;-63
2023/11/27 04:14:47;;;;;;;10.00;8.60;;;3.20;99.90;;;;;;5006954;28;20509;-63
2023/11/27 04:17:15;;;;;;;11.60;8.30;;;3.20;99.90;;;;;;5016255;28;22006;-62
2023/11/27 04:19:43;;;;;;;11.57;8.70;;;3.20;99.90;;;;;;5017706;28;20478;-63
2023/11/27 04:22:11;;;;;;;13.60;9.07;;;3.20;99.90;;;;;;5019726;28;20512;-62
2023/11/27 04:24:40;;;;;;;12.87;9.40;;;3.10;99.90;;;;;;5015129;28;20491;-62
2023/11/27 04:27:09;;;;;;;10.93;8.47;;;3.10;99.90;;;;;;5020817;28;20841;-62
2023/11/27 04:29:37;;;;;;;10.43;7.73;;;3.10;99.90;;;;;;5014591;28;20467;-62
2023/11/27 04:32:05;;;;;;;10.57;8.20;;;3.10;99.90;;;;;;5019571;28;20537;-62
2023/11/27 04:34:33;;;;;;;10.87;8.60;;;3.10;99.90;;;;;;5023640;28;20518;-62
2023/11/27 04:37:01;;;;;;;11.63;9.20;;;3.10;99.90;;;;;;5046215;28;20515;-61
2023/11/27 04:39:29;;;;;;;12.47;9.57;;;3.10;99.90;;;;;;5037675;28;20996;-62
2023/11/27 04:41:59;;;;;;;13.60;8.80;;;3.10;99.90;;;;;;5018096;28;20478;-62
2023/11/27 04:44:27;;;;;;;11.97;8.97;;;3.10;99.90;;;;;;5015709;28;20505;-63
2023/11/27 04:46:54;;;;;;;13.87;8.73;;;3.10;99.90;;;;;;5020967;28;20542;-62
2023/11/27 04:49:23;;;;;;;13.10;9.00;;;3.10;99.90;;;;;;5020927;28;20621;-62
2023/11/27 04:51:51;;;;;;;13.43;8.70;;;3.10;99.90;;;;;;5021160;28;20468;-62
2023/11/27 04:54:19;;;;;;;10.73;8.07;;;3.10;99.90;;;;;;5017531;28;20502;-62
2023/11/27 04:56:47;;;;;;;10.50;8.60;;;3.10;99.90;;;;;;5019368;28;20487;-62
2023/11/27 04:59:16;;;;;;;11.80;8.50;;;3.10;99.90;;;;;;5014718;28;20479;-63
2023/11/27 05:01:45;;;;;;;11.33;8.10;;;3.10;99.90;;;;;;5012605;28;20846;-62
2023/11/27 05:04:17;;;;;;;13.00;8.83;;;3.10;99.90;;;;;;5017336;28;20492;-63
2023/11/27 05:06:45;;;;;;;12.33;9.30;;;3.10;99.90;;;;;;5017369;28;20858;-63
2023/11/27 05:09:16;;;;;;;11.03;8.10;;;3.10;99.90;;;;;;5021816;28;20550;-63
2023/11/27 05:11:44;;;;;;;10.20;8.10;;;3.10;99.90;;;;;;5020078;28;20476;-62
2023/11/27 05:14:12;;;;;;;12.97;9.27;;;3.10;99.90;;;;;;5012705;28;20626;-62
2023/11/27 05:16:41;;;;;;;11.30;8.07;;;3.10;99.90;;;;;;5028971;28;20491;-62
2023/11/27 05:19:09;;;;;;;8.77;7.37;;;3.10;99.90;;;;;;5021773;28;21039;-63
2023/11/27 05:21:38;;;;;;;10.33;7.43;;;3.10;99.90;;;;;;5018566;28;20471;-62
2023/11/27 05:24:06;;;;;;;11.87;7.67;;;3.10;99.90;;;;;;5014820;28;20585;-63
2023/11/27 05:26:34;;;;;;;9.17;7.00;;;3.10;99.90;;;;;;5018418;28;20541;-63
2023/11/27 05:29:02;;;;;;;8.63;7.10;;;3.10;99.90;;;;;;5010320;28;20909;-62
2023/11/27 05:31:30;;;;;;;8.93;6.93;;;3.20;99.90;;;;;;5021370;28;20974;-62
2023/11/27 05:34:00;;;;;;;11.10;7.80;;;3.20;99.90;;;;;;5015317;28;20525;-63
2023/11/27 05:36:28;;;;;;;8.27;6.70;;;3.20;99.90;;;;;;5019365;28;20565;-62
2023/11/27 05:38:56;;;;;;;9.97;8.00;;;3.20;99.90;;;;;;5016204;28;20499;-62
2023/11/27 05:41:24;;;;;;;9.33;6.83;;;3.20;99.90;;;;;;5015830;28;22572;-61
2023/11/27 05:43:52;;;;;;;8.80;6.47;;;3.20;99.90;;;;;;5013442;28;20527;-62
2023/11/27 05:46:20;;;;;;;9.40;7.13;;;3.20;99.90;;;;;;5025023;28;20476;-64
2023/11/27 05:48:48;;;;;;;8.03;6.70;;;3.20;99.90;;;;;;5021706;28;21028;-61
2023/11/27 05:51:17;;;;;;;8.00;6.53;;;3.20;99.90;;;;;;5016215;28;20968;-62
2023/11/27 05:53:45;;;;;;;8.93;6.30;;;3.20;99.90;;;;;;5017610;28;20466;-62
2023/11/27 05:56:14;;;;;;;6.67;5.73;;;3.20;99.90;;;;;;5011698;28;20581;-61
2023/11/27 05:58:41;;;;;;;9.80;6.50;;;3.20;99.90;;;;;;5016211;28;21004;-62
2023/11/27 06:01:09;;;;;;;7.07;5.47;;;3.20;99.90;;;;;;5020111;28;21057;-63
2023/11/27 06:03:38;;;;;;;7.83;5.43;;;3.20;99.90;;;;;;5015403;28;20467;-62
2023/11/27 06:06:08;;;;;;;7.80;5.63;;;3.20;99.90;;;;;;5008921;28;20589;-62
2023/11/27 06:08:37;;;;;;;7.07;5.70;;;3.30;99.90;;;;;;5016148;28;20526;-62
2023/11/27 06:11:06;;;;;;;7.10;5.33;;;3.30;99.90;;;;;;5014135;28;20515;-63
2023/11/27 06:13:33;;;;;;;5.90;5.00;;;3.20;99.90;;;;;;5020826;28;20563;-63
2023/11/27 06:16:02;;;;;;;7.07;5.40;;;3.30;99.90;;;;;;5017235;28;20475;-62
2023/11/27 06:18:30;;;;;;;6.43;5.10;;;3.30;99.90;;;;;;5012455;28;20495;-62
2023/11/27 06:20:58;;;;;;;7.40;5.20;;;3.30;99.90;;;;;;5002853;28;20907;-62
2023/11/27 06:23:26;;;;;;;6.87;5.37;;;3.30;99.90;;;;;;4993859;28;20484;-63
2023/11/27 06:25:56;;;;;;;6.30;5.10;;;3.20;99.90;;;;;;4995333;28;21247;-62
2023/11/27 06:28:24;;;;;;;6.77;5.40;;;3.20;99.90;;;;;;5001799;28;20554;-61
2023/11/27 06:30:52;;;;;;;5.90;5.00;;;3.20;99.90;;;;;;5011699;28;20959;-62
2023/11/27 06:33:20;;;;;;;6.73;4.80;;;3.30;99.90;;;;;;4992924;28;20483;-62
2023/11/27 06:35:50;;;;;;;6.73;4.93;;;3.20;99.90;;;;;;4999037;28;20490;-62
2023/11/27 06:38:18;;;;;;;6.37;4.90;;;3.20;99.90;;;;;;5009228;28;20585;-64
2023/11/27 06:40:48;;;;;;;6.73;4.90;;;3.30;99.90;;;;;;5009937;28;20561;-62
2023/11/27 06:43:17;;;;;;;5.90;4.93;;;3.30;99.90;;;;;;5005654;28;20489;-62
2023/11/27 06:45:45;;;;;;;5.57;4.73;;;3.30;99.90;;;;;;5011566;28;20497;-64
2023/11/27 06:48:13;;;;;;;5.20;4.70;;;3.20;99.90;;;;;;5022809;28;20881;-64
2023/11/27 06:50:41;;;;;;;5.00;4.40;;;3.30;99.90;;;;;;5037102;28;20467;-62
2023/11/27 06:53:09;;;;;;;4.80;4.30;;;3.30;99.90;;;;;;5013726;28;20467;-62
2023/11/27 06:55:38;;;;;;;5.20;4.60;;;3.30;99.90;;;;;;5008955;28;20499;-62
2023/11/27 06:58:07;;;;;;;5.97;5.00;;;3.30;99.90;;;;;;5040199;23;20503;-68
2023/11/27 07:00:37;;;;;;;7.30;4.80;;;3.30;99.90;;;;;;5038131;28;20855;-69
2023/11/27 07:03:05;;;;;;;5.80;5.20;;;3.30;99.90;;;;;;5028504;28;20740;-69
2023/11/27 07:05:33;;;;;;;5.40;4.90;;;3.30;99.90;;;;;;5033751;28;20892;-69
2023/11/27 07:08:01;;;;;;;6.10;5.17;;;3.30;99.90;;;;;;5030508;28;20567;-69
2023/11/27 07:10:30;;;;;;;6.30;4.83;;;3.30;99.90;;;;;;5027015;28;20470;-69
2023/11/27 07:12:58;;;;;;;5.07;4.40;;;3.30;99.90;;;;;;5032983;28;20492;-69
2023/11/27 07:15:28;;;;;;;5.13;4.53;;;3.30;99.90;;;;;;5038250;28;20573;-69
2023/11/27 07:17:59;;;;;;;5.20;4.70;;;3.30;99.90;;;;;;5024627;28;21018;-69
2023/11/27 07:20:45;;;;;;;5.63;4.60;;;3.30;99.90;;;;;;5030964;28;20659;-69
2023/11/27 07:23:14;;;;;;;5.00;4.50;;;3.40;99.90;;;;;;5036684;28;20470;-69
2023/11/27 07:25:43;;;;;;;5.77;5.03;;;3.40;99.90;;;;;;5030246;28;21003;-69
2023/11/27 07:28:11;;;;;;;4.87;4.37;;;3.40;99.90;;;;;;5030476;28;20582;-69
2023/11/27 07:30:39;;;;;;;5.80;4.87;;;3.40;99.90;;;;;;5024763;28;20475;-69
2023/11/27 07:33:09;;;;;;;6.23;5.00;;;3.40;99.90;;;;;;5026805;28;20867;-69
2023/11/27 07:35:37;;;;;;;6.00;4.73;;;3.40;99.90;;;;;;5031791;28;20467;-69
2023/11/27 07:38:05;;;;;;;5.23;4.73;;;3.40;99.90;;;;;;5028251;28;20531;-69
2023/11/27 07:40:34;;;;;;;5.00;4.40;;;3.40;99.90;;;;;;5030270;28;20553;-69
2023/11/27 07:43:02;;;;;;;4.57;4.17;;;3.40;99.90;;;;;;5031542;28;20581;-69
2023/11/27 07:45:30;;;;;;;4.87;4.47;;;3.40;99.90;;;;;;5033704;28;20474;-69
2023/11/27 07:47:58;;;;;;;5.20;4.50;;;3.40;99.90;;;;;;5029058;28;20569;-69
2023/11/27 07:50:29;;;;;;;4.50;3.80;;;3.40;99.90;;;;;;5031051;28;20550;-69
2023/11/27 07:52:58;;;;;;;4.70;4.30;;;3.40;99.90;;;;;;5026044;28;20524;-69
2023/11/27 07:55:27;;;;;;;4.33;3.93;;;3.40;99.90;;;;;;5030257;28;20703;-69
2023/11/27 07:57:56;;;;;;;7.03;3.90;;;3.40;99.90;;;;;;5039536;28;20482;-69
2023/11/27 08:00:26;;;;;;;5.10;3.77;;;3.40;99.90;;;;;;5027116;28;20928;-69
2023/11/27 08:02:55;;;;;;;4.33;3.93;;;3.40;99.90;;;;;;5029768;28;20482;-69
2023/11/27 08:05:24;;;;;;;5.23;3.77;;;3.40;99.90;;;;;;5033746;28;20475;-69
2023/11/27 08:07:55;;;;;;;4.60;3.93;;;3.50;99.90;;;;;;5032408;28;20956;-69
2023/11/27 08:10:23;;;;;;;5.20;3.50;;;3.50;99.90;;;;;;5032455;28;20489;-69
2023/11/27 08:12:52;;;;;;;3.90;3.60;;;3.50;99.90;;;;;;5028669;28;20475;-69
2023/11/27 08:15:20;;;;;;;4.00;3.60;;;3.40;99.90;;;;;;5043417;28;20478;-69
2023/11/27 08:17:49;;;;;;;3.53;3.20;;;3.50;99.90;;;;;;5032472;28;20820;-69
2023/11/27 08:20:18;;;;;;;4.00;3.60;;;3.40;99.90;;;;;;5040511;28;20467;-69
2023/11/27 08:22:46;;;;;;;5.17;3.80;;;3.40;99.90;;;;;;5038496;28;20655;-68
2023/11/27 08:25:17;;;;;;;3.90;3.43;;;3.40;99.90;;;;;;5021675;28;20596;-70
2023/11/27 08:27:46;;;;;;;3.97;3.30;;;3.40;99.90;;;;;;5038019;28;20492;-69
2023/11/27 08:30:17;;;;;;;4.40;3.90;;;3.40;99.90;;;;;;5031647;28;20478;-69
2023/11/27 08:32:46;;;;;;;3.90;2.97;;;3.40;99.90;;;;;;5030015;28;20462;-69
2023/11/27 08:35:14;;;;;;;3.53;3.23;;;3.40;99.90;;;;;;5035934;28;20470;-70
2023/11/27 08:37:42;;;;;;;4.33;3.93;;;3.40;99.90;;;;;;5035664;28;20605;-69
2023/11/27 08:40:12;;;;;;;4.00;3.60;;;3.40;99.90;;;;;;5034202;28;20585;-69
2023/11/27 08:42:43;;;;;;;4.63;3.37;;;3.30;99.90;;;;;;5037211;28;20470;-69
2023/11/27 08:45:16;;;;;;;3.47;3.00;;;3.40;99.90;;;;;;5030319;28;20467;-69
2023/11/27 08:47:50;;;;;;;4.37;3.77;;;3.30;99.90;;;;;;5032064;28;20577;-69
2023/11/27 08:50:19;;;;;;;4.20;3.57;;;3.30;99.90;;;;;;5033101;28;20801;-69
2023/11/27 08:52:47;;;;;;;4.37;3.57;;;3.30;99.90;;;;;;5035698;28;20573;-70
2023/11/27 08:55:18;;;;;;;7.53;3.67;;;3.30;99.90;;;;;;5034743;28;20481;-68
2023/11/27 08:57:48;;;;;;;3.80;3.33;;;3.30;99.90;;;;;;5032953;28;21009;-69
2023/11/27 09:00:18;;;;;;;3.70;3.27;;;3.30;99.90;;;;;;5026517;28;20515;-69
2023/11/27 09:02:48;;;;;;;3.97;3.57;;;3.30;99.90;;;;;;5028872;28;20694;-69
2023/11/27 09:05:16;;;;;;;3.70;3.33;;;3.30;99.90;;;;;;5032349;28;20543;-69
2023/11/27 09:07:47;;;;;;;4.53;3.63;;;3.30;99.90;;;;;;5031605;28;20924;-69
2023/11/27 09:10:17;;;;;;;4.50;3.50;;;3.30;99.90;;;;;;5027682;28;21215;-69
2023/11/27 09:12:45;;;;;;;4.80;3.43;;;3.30;99.90;;;;;;5011914;28;21203;-69
2023/11/27 09:15:14;;;;;;;2.97;2.67;;;3.30;99.90;;;;;;5036435;28;20610;-69
2023/11/27 09:17:42;;;;;;;4.80;3.97;;;3.30;99.90;;;;;;5034535;28;20564;-70
2023/11/27 09:20:12;;;;;;;3.30;3.00;;;3.30;99.90;;;;;;5031987;28;20586;-69
2023/11/27 09:22:40;;;;;;;3.00;2.70;;;3.30;99.90;;;;;;5023635;28;20470;-69
2023/11/27 09:25:09;;;;;;;3.17;2.67;;;3.30;99.90;;;;;;5024001;28;20481;-69
2023/11/27 09:27:37;;;;;;;3.40;3.10;;;3.30;99.90;;;;;;5041858;28;20509;-69
2023/11/27 09:30:10;;;;;;;4.00;3.43;;;3.30;99.90;;;;;;5037964;28;20941;-69
2023/11/27 09:32:40;;;;;;;4.00;3.23;;;3.30;99.90;;;;;;5028338;28;20981;-70
2023/11/27 09:35:12;;;;;;;3.27;2.97;;;3.30;99.90;;;;;;5018410;28;20470;-69
2023/11/27 09:37:40;;;;;;;4.37;3.00;;;3.30;99.90;;;;;;5024699;28;20745;-69
2023/11/27 09:40:11;;;;;;;3.77;3.20;;;3.30;99.90;;;;;;5033452;28;20593;-69
2023/11/27 09:42:41;;;;;;;3.73;2.70;;;3.30;99.90;;;;;;5034726;28;20476;-69
2023/11/27 09:45:18;;;;;;;4.57;3.00;;;3.30;99.90;;;;;;5034071;28;20484;-69
2023/11/27 09:47:49;;;;;;;3.60;2.73;;;3.30;99.90;;;;;;5021671;28;20492;-69
2023/11/27 09:50:21;;;;;;;4.40;3.60;;;3.30;99.90;;;;;;5032500;28;20487;-69
2023/11/27 09:52:52;;;;;;;3.03;2.47;;;3.20;99.90;;;;;;5026153;28;20477;-69
2023/11/27 09:55:21;;;;;;;3.13;2.83;;;3.20;99.90;;;;;;5035038;28;20459;-69
2023/11/27 09:57:50;;;;;;;2.93;2.63;;;3.20;99.90;;;;;;5030823;28;20501;-69
2023/11/27 10:00:20;;;;;;;2.63;2.23;;;3.20;99.90;;;;;;5025686;28;20491;-69
2023/11/27 10:02:50;;;;;;;4.93;2.53;;;3.20;99.90;;;;;;5033102;28;20478;-69
2023/11/27 10:05:21;;;;;;;4.60;3.20;;;3.20;99.90;;;;;;5034609;28;20739;-69
2023/11/27 10:07:51;;;;;;;3.33;3.03;;;3.20;99.90;;;;;;5030775;28;21143;-69
2023/11/27 10:10:25;;;;;;;2.90;2.30;;;3.10;99.90;;;;;;5033100;28;20490;-69
2023/11/27 10:12:58;;;;;;;2.50;2.17;;;3.10;99.90;;;;;;5027472;28;20510;-70
2023/11/27 10:15:27;;;;;;;2.60;2.10;;;3.10;99.90;;;;;;5032130;28;20488;-69
2023/11/27 10:17:59;;;;;;;2.43;2.23;;;3.10;99.90;;;;;;5026291;28;20567;-69
2023/11/27 10:20:31;;;;;;;2.93;2.57;;;3.10;99.90;;;;;;5022720;28;20881;-69
2023/11/27 10:23:01;;;;;;;2.30;2.10;;;3.10;99.90;;;;;;5012210;28;20790;-69
2023/11/27 10:25:33;;;;;;;2.37;2.13;;;3.10;99.90;;;;;;5034856;28;20466;-71
2023/11/27 10:28:12;;;;;;;2.33;2.13;;;3.00;99.90;;;;;;5029180;28;22121;-68
2023/11/27 10:30:49;;;;;;;2.40;2.20;;;3.00;99.90;;;;;;5026634;28;21934;-69
2023/11/27 10:33:22;;;;;;;2.33;2.13;;;3.00;99.90;;;;;;5023411;28;21948;-68
2023/11/27 10:35:55;;;;;;;3.83;3.07;;;3.00;99.90;;;;;;5017728;28;20524;-69
2023/11/27 10:38:23;;;;;;;3.27;2.87;;;2.90;99.90;;;;;;5025412;28;20498;-70
2023/11/27 10:40:52;;;;;;;2.53;2.10;;;2.90;99.90;;;;;;5021468;28;20498;-69
2023/11/27 10:43:23;;;;;;;2.60;2.40;;;2.90;99.90;;;;;;5031529;28;20557;-69
2023/11/27 10:45:54;;;;;;;3.27;2.50;;;2.90;99.90;;;;;;5021433;28;20823;-69
2023/11/27 10:48:25;;;;;;;2.47;2.27;;;2.90;99.90;;;;;;5027023;28;20482;-69
2023/11/27 10:51:13;;;;;;;2.57;2.33;;;2.90;99.90;;;;;;5027055;28;20502;-69
2023/11/27 10:53:45;;;;;;;2.93;2.73;;;2.90;99.90;;;;;;5025541;28;20479;-69
2023/11/27 10:56:17;;;;;;;2.80;2.60;;;2.90;99.90;;;;;;5028276;28;20470;-69
2023/11/27 10:58:47;;;;;;;2.83;2.30;;;2.90;99.90;;;;;;5013235;28;20507;-69
2023/11/27 11:01:24;;;;;;;2.97;2.17;;;3.00;99.90;;;;;;5028234;28;20490;-70
2023/11/27 11:03:56;;;;;;;2.70;2.50;;;2.90;99.90;;;;;;5041013;28;20465;-70
2023/11/27 11:06:28;;;;;;;2.90;2.50;;;3.00;99.90;;;;;;5037018;28;20474;-69
2023/11/27 11:08:57;;;;;;;2.77;2.53;;;2.90;99.90;;;;;;5023370;28;20948;-69
2023/11/27 11:11:27;;;;;;;3.63;2.87;;;2.90;99.90;;;;;;5026184;28;20458;-70
2023/11/27 11:13:57;;;;;;;2.93;2.60;;;2.90;99.90;;;;;;5024110;28;20557;-69
2023/11/27 11:16:55;;;;;;;2.80;2.50;;;2.90;99.90;;;;;;5025582;28;20482;-69
2023/11/27 11:19:32;;;;;;;3.00;2.37;;;2.90;99.90;;;;;;5033391;28;20556;-69
2023/11/27 11:22:14;;;;;;;3.73;3.07;;;2.90;99.90;;;;;;5016637;28;20478;-69
2023/11/27 11:24:55;;;;;;;3.07;2.77;;;3.00;99.90;;;;;;5026428;28;20493;-70
2023/11/27 11:27:34;;;;;;;3.70;3.10;;;2.90;99.90;;;;;;5038105;28;20522;-69
2023/11/27 11:30:04;;;;;;;3.90;3.17;;;3.00;99.90;;;;;;5034410;28;20969;-70
2023/11/27 11:32:36;;;;;;;4.50;3.27;;;2.90;99.90;;;;;;5023191;28;20470;-69
2023/11/27 11:35:10;;;;;;;3.20;2.90;;;2.90;99.90;;;;;;5027504;28;20486;-68
2023/11/27 11:37:56;;;;;;;4.97;3.10;;;2.90;99.90;;;;;;5027446;28;20499;-69
2023/11/27 11:40:40;;;;;;;3.37;3.07;;;3.00;99.90;;;;;;5031711;28;22470;-68
2023/11/27 11:43:10;;;;;;;3.40;3.00;;;3.00;99.90;;;;;;5037356;28;20474;-70
2023/11/27 11:45:39;;;;;;;3.10;2.60;;;3.00;99.90;;;;;;5027629;28;20474;-69
2023/11/27 11:48:12;;;;;;;3.30;3.00;;;3.00;99.90;;;;;;5031331;28;20482;-69
2023/11/27 11:50:42;;;;;;;4.40;3.50;;;3.00;99.90;;;;;;5032590;28;21144;-69
2023/11/27 11:53:42;;;;;;;3.97;3.33;;;3.00;99.90;;;;;;5032851;28;20473;-68
2023/11/27 11:56:22;;;;;;;3.40;3.10;;;3.00;99.90;;;;;;5019432;28;20470;-69
2023/11/27 11:59:01;;;;;;;4.50;3.17;;;3.00;99.90;;;;;;5030145;28;20504;-68
2023/11/27 12:01:32;;;;;;;4.10;3.23;;;3.00;99.90;;;;;;5032101;28;20498;-69
2023/11/27 12:04:05;;;;;;;3.83;3.30;;;3.00;99.90;;;;;;5021882;28;20474;-69
2023/11/27 12:06:36;;;;;;;3.77;3.40;;;3.00;99.90;;;;;;5026391;28;20482;-68
2023/11/27 12:09:10;;;;;;;3.90;3.43;;;2.90;99.90;;;;;;5021821;28;20480;-69
2023/11/27 12:11:38;;;;;;;3.40;3.10;;;2.90;99.90;;;;;;5037026;28;20509;-68
2023/11/27 12:14:14;;;;;;;3.80;3.50;;;2.90;99.90;;;;;;5038946;28;20470;-68
2023/11/27 12:16:42;;;;;;;3.90;3.30;;;2.90;99.90;;;;;;5028470;28;20473;-69
2023/11/27 12:19:12;;;;;;;4.30;3.43;;;2.90;99.90;;;;;;5007222;28;20565;-68
2023/11/27 12:21:43;;;;;;;4.13;3.63;;;2.80;99.90;;;;;;5030542;28;20874;-72
2023/11/27 12:24:14;;;;;;;4.70;3.60;;;2.90;99.90;;;;;;5028251;28;20497;-69
2023/11/27 12:26:43;;;;;;;5.00;3.90;;;2.80;99.90;;;;;;5019929;28;20823;-69
2023/11/27 12:29:11;;;;;;;4.53;3.30;;;2.90;99.90;;;;;;5025424;28;20577;-69
2023/11/27 12:31:39;;;;;;;4.10;2.87;;;2.90;99.90;;;;;;5019883;28;20478;-68
2023/11/27 12:34:08;;;;;;;4.00;3.23;;;2.90;99.90;;;;;;5024921;28;20601;-68
2023/11/27 12:36:37;;;;;;;3.80;2.93;;;2.90;99.90;;;;;;5023960;28;20470;-69
2023/11/27 12:39:10;;;;;;;4.10;3.37;;;2.90;99.90;;;;;;5020521;28;20535;-69
2023/11/27 12:41:43;;;;;;;3.67;3.27;;;2.90;99.90;;;;;;5015343;28;20505;-68
2023/11/27 12:44:23;;;;;;;3.70;3.17;;;2.90;99.90;;;;;;5020307;28;20485;-69
2023/11/27 12:46:53;;;;;;;4.27;3.87;;;2.90;99.90;;;;;;5024332;28;20506;-68
2023/11/27 12:49:28;;;;;;;3.87;3.30;;;2.90;99.90;;;;;;5029936;28;20542;-69
2023/11/27 12:51:58;;;;;;;3.67;3.10;;;2.90;99.90;;;;;;5030341;28;20525;-69
2023/11/27 12:54:27;;;;;;;3.50;3.10;;;2.90;99.90;;;;;;5011055;28;21055;-69
2023/11/27 12:57:00;;;;;;;4.13;3.47;;;2.90;99.90;;;;;;5030524;28;21196;-71
2023/11/27 12:59:29;;;;;;;3.30;3.00;;;3.00;99.90;;;;;;5046074;23;20477;-60
2023/11/27 13:01:58;;;;;;;4.20;3.63;;;3.00;99.90;;;;;;4995348;28;21795;-61
2023/11/27 13:04:30;;;;;;;5.03;3.90;;;3.00;99.90;;;;;;4989400;28;20473;-61